Malcom, Iowa
Current Conditions -  °F | °C
As of 6:35 AM on Monday 22 Dec 2014 (Local Time) from KGGI Reporting Station
Drizzle Drizzle  
Wind Chill: 28°   Ceiling: 1800
Heat Index: 37°   Visibility: 5mi
Dew Point: 35°   Wind: 13mph
Humidity: 93%   Direction: 130°SE
Pressure: 29.69"   Gusts: NA
Location:  41.71°N, 92.56°W
Report Text: KGGI 221235Z AUTO 13011KT 5SM -DZ OVC018 03/02 A2969 RMK AO2 T00250015
Loading
Personal Weather Stations






























Interactive Weather Map New forecast layout! Learn more

10-Day Weather Forecast

Advertisements
Track Severe Weather on mobile